Time;durP1;ratioP1;P1;durP2;ratioP2;P2;SDS_P1;SDS_P2;PMS_P1;PMS_P2;Temp;Humidity;BMP_temperature;BMP_pressure;BME280_temperature;BME280_humidity;BME280_pressure;Samples;Min_cycle;Max_cycle;Signal;HPM_P1;HPM_P2
2021/04/17 00:39:38;;;;;;;36.37;11.03;;;;;;;0.63;78.63;99483.25;1765044;76;21200;-82
2021/04/17 00:42:10;;;;;;;27.22;10.75;;;;;;;0.63;78.96;99481.97;1763369;76;22890;31
2021/04/17 00:54:31;;;;;;;22.35;10.03;;;;;;;0.54;77.46;99489.91;1754325;77;21224;31
2021/04/17 01:13:00;;;;;;;48.83;14.40;;;;;;;0.12;80.01;99478.28;1688804;80;21411;31
2021/04/17 01:15:29;;;;;;;57.25;19.17;;;;;;;0.10;80.09;99479.55;1729357;79;21333;-81
2021/04/17 01:30:41;;;;;;;31.05;11.08;;;;;;;-0.01;81.10;99486.09;1717074;79;21217;31
2021/04/17 01:36:31;;;;;;;34.80;10.48;;;;;;;-0.04;81.78;99486.02;1744152;76;21224;31
2021/04/17 01:39:20;;;;;;;25.37;10.90;;;;;;;-0.08;80.59;99476.16;1708187;78;21193;31
2021/04/17 01:51:20;;;;;;;27.17;10.03;;;;;;;-0.21;80.66;99466.03;1730546;77;21215;31
2021/04/17 01:53:57;;;;;;;31.48;11.05;;;;;;;-0.21;80.55;99473.70;1718032;77;23229;31
2021/04/17 01:59:41;;;;;;;25.50;10.78;;;;;;;-0.29;80.16;99471.80;1728420;77;21165;31
2021/04/17 02:21:45;;;;;;;45.73;14.83;;;;;;;-0.38;78.28;99464.75;1722018;77;21170;31
2021/04/17 02:24:14;;;;;;;45.33;16.62;;;;;;;-0.38;80.51;99466.03;1707588;78;21198;-83
2021/04/17 02:33:35;;;;;;;31.48;10.55;;;;;;;-0.38;79.73;99463.48;1732681;78;22527;31
2021/04/17 02:36:13;;;;;;;33.85;13.30;;;;;;;-0.38;80.16;99458.78;1715158;79;21307;31
2021/04/17 02:41:55;;;;;;;26.62;10.58;;;;;;;-0.40;79.75;99458.74;1743316;80;21188;31
2021/04/17 02:50:34;;;;;;;26.75;9.90;;;;;;;-0.42;81.92;99464.23;1694786;79;21228;31
2021/04/17 02:56:09;;;;;;;38.17;9.33;;;;;;;-0.46;80.98;99454.77;1735782;78;21205;31
2021/04/17 02:58:44;;;;;;;28.38;9.03;;;;;;;-0.50;81.46;99452.54;1687886;78;21200;31
2021/04/17 03:04:50;;;;;;;32.42;11.40;;;;;;;-0.49;80.38;99457.26;1654339;82;21279;31
2021/04/17 03:07:32;;;;;;;65.40;19.45;;;;;;;-0.50;80.84;99462.75;1679935;79;21250;31
2021/04/17 03:10:01;;;;;;;57.05;19.75;;;;;;;-0.51;80.05;99462.31;1686012;77;21277;-83
2021/04/17 03:12:30;;;;;;;72.85;21.60;;;;;;;-0.49;80.88;99461.94;1621906;82;21567;-82
2021/04/17 03:15:00;;;;;;;68.83;22.60;;;;;;;-0.45;80.36;99464.17;1674967;77;21177;-83
2021/04/17 03:17:29;;;;;;;67.03;21.80;;;;;;;-0.42;80.59;99465.50;1652037;84;21203;-83
2021/04/17 03:20:07;;;;;;;57.58;18.95;;;;;;;-0.38;80.17;99472.42;1667731;79;22606;31
2021/04/17 03:26:06;;;;;;;48.02;16.97;;;;;;;-0.37;78.94;99469.47;1701722;78;22895;31
2021/04/17 03:28:43;;;;;;;52.87;17.63;;;;;;;-0.38;79.69;99462.20;1707008;77;22778;31
2021/04/17 03:34:25;;;;;;;81.72;15.80;;;;;;;-0.34;80.00;99463.14;1708540;77;21260;31
2021/04/17 03:43:43;;;;;;;33.18;10.50;;;;;;;-0.41;79.93;99460.44;1757182;77;21240;31
2021/04/17 04:09:26;;;;;;;32.35;13.90;;;;;;;-0.37;80.79;99469.05;1677517;79;21202;-83
2021/04/17 04:15:31;;;;;;;43.30;13.03;;;;;;;-0.33;80.19;99466.16;1708823;78;21231;31
2021/04/17 04:18:00;;;;;;;36.42;14.35;;;;;;;-0.30;80.44;99465.83;1721930;78;21245;-81
2021/04/17 04:20:57;;;;;;;28.93;11.73;;;;;;;-0.28;80.57;99471.84;1629952;81;21234;31
2021/04/17 04:23:29;;;;;;;25.30;10.82;;;;;;;-0.26;80.38;99474.02;1708943;79;22900;-83
2021/04/17 04:32:54;;;;;;;23.20;9.30;;;;;;;-0.16;80.07;99474.22;1730617;78;21174;31
2021/04/17 04:35:24;;;;;;;23.25;9.05;;;;;;;-0.16;79.35;99472.95;1768200;79;21257;-83
2021/04/17 04:38:06;;;;;;;16.82;7.58;;;;;;;-0.13;79.32;99474.31;1752417;77;21216;31
2021/04/17 04:53:49;;;;;;;27.37;10.15;;;;;;;0.10;78.68;99479.95;1677390;77;21326;31
2021/04/17 04:56:33;;;;;;;27.30;10.72;;;;;;;0.12;78.63;99475.34;1700522;80;21227;31
2021/04/17 04:59:18;;;;;;;21.30;9.48;;;;;;;0.18;78.73;99481.02;1667855;81;21319;31
2021/04/17 05:05:06;;;;;;;36.93;12.13;;;;;;;0.37;78.91;99480.56;1703058;78;21347;31
2021/04/17 05:07:52;;;;;;;29.12;10.75;;;;;;;0.48;79.02;99483.77;1689441;78;21263;31
2021/04/17 05:27:18;;;;;;;24.18;10.55;;;;;;;1.23;78.01;99495.95;1673331;79;21366;31
2021/04/17 05:30:00;;;;;;;24.98;9.58;;;;;;;1.37;77.76;99482.98;1674441;81;22792;31
2021/04/17 05:32:29;;;;;;;19.55;9.10;;;;;;;1.50;77.66;99472.55;1722843;80;21318;-81
2021/04/17 05:38:22;;;;;;;19.40;9.40;;;;;;;1.77;77.20;99486.23;1696147;79;21285;31
2021/04/17 05:44:21;;;;;;;24.60;11.37;;;;;;;2.09;76.81;99471.38;1697812;80;21386;31
2021/04/17 05:53:28;;;;;;;22.03;10.30;;;;;;;2.68;76.24;99470.89;1684443;79;21216;31
2021/04/17 05:56:05;;;;;;;23.20;10.30;;;;;;;2.87;75.49;99474.13;1696344;78;22751;31
2021/04/17 05:58:34;;;;;;;22.22;10.05;;;;;;;2.97;75.01;99463.12;1712376;80;21107;-82
2021/04/17 06:01:18;;;;;;;28.12;10.93;;;;;;;3.11;74.27;99470.13;1683194;80;22944;31
2021/04/17 06:03:47;;;;;;;19.05;9.48;;;;;;;3.22;74.79;99467.66;1659565;83;21300;-82
2021/04/17 06:06:15;;;;;;;23.73;10.93;;;;;;;3.26;72.72;99465.13;1647567;86;21213;-81
2021/04/17 06:11:53;;;;;;;27.35;10.72;;;;;;;3.46;73.32;99455.07;1683700;79;21122;-81
2021/04/17 06:17:36;;;;;;;17.30;8.43;;;;;;;3.64;72.98;99447.06;1681609;83;21183;-82
2021/04/17 06:20:07;;;;;;;19.77;9.15;;;;;;;3.69;72.66;99446.25;1705803;81;21181;-80
2021/04/17 06:22:36;;;;;;;18.35;9.28;;;;;;;3.69;71.86;99432.11;1683315;82;21332;-82
2021/04/17 06:25:07;;;;;;;19.15;8.65;;;;;;;3.83;72.16;99439.08;1663764;84;21348;-82
2021/04/17 06:27:36;;;;;;;23.32;8.68;;;;;;;3.96;71.57;99440.91;1704014;83;21324;-83
2021/04/17 06:30:06;;;;;;;19.17;7.72;;;;;;;4.09;71.67;99442.69;1709244;83;21286;-82
2021/04/17 06:32:34;;;;;;;17.32;8.53;;;;;;;4.14;70.84;99438.45;1706950;82;21325;-81
2021/04/17 06:35:04;;;;;;;16.75;8.00;;;;;;;4.21;70.93;99441.05;1705393;82;21451;-83
2021/04/17 06:37:32;;;;;;;16.67;7.78;;;;;;;4.28;71.20;99428.67;1704977;82;21308;-86
2021/04/17 06:40:00;;;;;;;16.45;8.18;;;;;;;4.34;70.96;99432.13;1696800;82;21664;-84
2021/04/17 06:42:32;;;;;;;18.55;8.70;;;;;;;4.39;70.30;99438.58;1700653;83;21313;-86
2021/04/17 06:45:03;;;;;;;20.85;9.10;;;;;;;4.46;70.94;99435.20;1667591;83;21201;-83
2021/04/17 06:47:32;;;;;;;19.15;9.03;;;;;;;4.58;70.79;99426.67;1701487;82;21168;-82
2021/04/17 06:50:02;;;;;;;16.95;8.20;;;;;;;4.74;69.89;99426.31;1695255;82;21158;-83
2021/04/17 06:52:32;;;;;;;17.95;8.08;;;;;;;4.88;69.17;99424.63;1702090;82;21281;-84
2021/04/17 06:55:01;;;;;;;17.02;8.45;;;;;;;4.98;70.23;99426.81;1697792;82;21297;-84
2021/04/17 06:57:29;;;;;;;16.07;8.33;;;;;;;5.13;69.31;99419.53;1693962;82;21324;-85
2021/04/17 07:00:00;;;;;;;14.80;7.00;;;;;;;5.26;68.77;99425.16;1673377;83;21511;-85
2021/04/17 07:02:31;;;;;;;15.70;7.35;;;;;;;5.41;68.15;99428.60;1692673;81;21167;31
2021/04/17 07:05:00;;;;;;;15.80;7.92;;;;;;;5.44;67.01;99422.17;1628153;87;21229;-87
2021/04/17 07:07:35;;;;;;;19.75;8.45;;;;;;;5.67;66.51;99430.78;1628419;86;21213;-88
2021/04/17 07:10:05;;;;;;;17.65;7.75;;;;;;;5.76;66.91;99434.63;1633901;80;21171;-86
2021/04/17 07:12:34;;;;;;;13.98;7.83;;;;;;;5.85;66.07;99429.04;1693373;83;21336;-84
2021/04/17 07:15:08;;;;;;;14.70;6.97;;;;;;;5.94;67.10;99422.16;1671383;82;21280;-83
2021/04/17 07:17:39;;;;;;;13.90;7.40;;;;;;;5.98;65.06;99416.59;1632762;82;21222;-89
2021/04/17 07:20:10;;;;;;;14.95;7.78;;;;;;;6.05;65.54;99420.90;1636630;86;21219;-89
2021/04/17 07:22:41;;;;;;;16.52;7.20;;;;;;;6.11;65.35;99419.59;1638920;83;21349;-87
2021/04/17 07:25:14;;;;;;;14.93;7.72;;;;;;;6.21;65.68;99426.01;1691531;82;21315;-87
2021/04/17 07:27:48;;;;;;;16.73;7.22;;;;;;;6.26;64.30;99407.50;1711424;80;21697;-91
2021/04/17 07:30:23;;;;;;;15.98;7.30;;;;;;;6.45;64.99;99417.37;1702242;82;21186;-87
2021/04/17 07:33:16;;;;;;;13.28;6.55;;;;;;;6.52;65.48;99411.30;1653702;79;21150;-90
2021/04/17 07:35:52;;;;;;;13.05;6.45;;;;;;;6.60;64.80;99400.94;1691431;81;21311;-84
2021/04/17 07:38:26;;;;;;;11.28;6.60;;;;;;;6.68;63.19;99397.44;1737207;80;21200;-89
2021/04/17 07:41:17;;;;;;;10.75;6.00;;;;;;;6.79;63.64;99395.27;1749436;79;21304;-87
2021/04/17 07:46:43;;;;;;;13.75;7.22;;;;;;;6.96;60.41;99393.42;1812447;78;22896;-90
2021/04/17 07:49:21;;;;;;;11.18;6.85;;;;;;;6.92;61.37;99392.61;1675443;84;21598;-91
2021/04/17 07:52:12;;;;;;;12.23;6.75;;;;;;;6.96;61.04;99384.37;1709044;81;21257;-84
2021/04/17 07:55:04;;;;;;;12.73;7.40;;;;;;;6.88;59.59;99389.59;1755071;80;21126;-87
2021/04/17 07:57:43;;;;;;;14.68;8.05;;;;;;;6.94;60.54;99385.70;1686915;83;21607;-85
2021/04/17 08:00:15;;;;;;;13.93;8.10;;;;;;;7.11;61.08;99380.86;1700177;82;21222;-84
2021/04/17 08:02:47;;;;;;;14.63;8.20;;;;;;;7.23;60.42;99387.68;1708526;81;21254;-85
2021/04/17 08:05:16;;;;;;;15.48;8.53;;;;;;;7.22;60.87;99366.14;1721409;81;21143;-85
2021/04/17 08:07:43;;;;;;;14.28;7.95;;;;;;;7.28;60.41;99369.09;1721619;83;21155;-83
2021/04/17 08:10:13;;;;;;;15.78;8.55;;;;;;;7.39;59.77;99367.30;1721568;83;21148;-84
2021/04/17 08:12:43;;;;;;;15.72;8.88;;;;;;;7.31;59.49;99369.94;1721620;82;21123;-85
2021/04/17 08:15:16;;;;;;;12.25;7.85;;;;;;;7.33;60.21;99362.17;1758702;80;21144;-87
2021/04/17 08:17:45;;;;;;;14.33;8.13;;;;;;;7.46;59.46;99368.09;1759276;78;21170;-88
2021/04/17 08:20:16;;;;;;;17.85;8.15;;;;;;;7.57;59.50;99367.58;1761725;80;21225;-84
2021/04/17 08:22:51;;;;;;;15.10;8.83;;;;;;;7.68;59.31;99365.77;1764421;81;21268;-85
2021/04/17 08:25:24;;;;;;;14.05;7.40;;;;;;;7.75;58.40;99357.05;1764380;77;21299;-84
2021/04/17 08:27:53;;;;;;;14.83;8.23;;;;;;;7.78;57.26;99349.72;1764504;77;21177;-84
2021/04/17 08:30:24;;;;;;;11.73;7.15;;;;;;;7.90;57.54;99350.03;1764115;77;21281;-85
2021/04/17 08:32:53;;;;;;;13.35;7.80;;;;;;;7.97;55.85;99347.78;1763739;80;21273;-85
2021/04/17 08:35:24;;;;;;;14.03;8.10;;;;;;;7.97;55.27;99334.84;1763624;78;21304;-83
2021/04/17 08:38:02;;;;;;;14.93;8.65;;;;;;;8.05;56.79;99340.78;1734045;83;21537;-84
2021/04/17 08:40:41;;;;;;;14.15;8.75;;;;;;;8.14;55.49;99341.99;1704818;82;21219;-84
2021/04/17 08:43:17;;;;;;;13.80;7.83;;;;;;;8.24;55.38;99336.72;1729750;82;21269;-85
2021/04/17 08:46:15;;;;;;;11.68;7.20;;;;;;;8.28;54.86;99331.92;1696008;84;21329;-85
2021/04/17 08:49:00;;;;;;;12.23;7.08;;;;;;;8.43;55.27;99327.00;1700470;82;21547;-84
2021/04/17 08:51:36;;;;;;;16.35;7.75;;;;;;;8.57;54.45;99323.79;1701161;84;21276;-84
2021/04/17 08:54:09;;;;;;;15.85;8.43;;;;;;;8.75;55.07;99320.09;1702851;83;21312;-86
2021/04/17 08:57:03;;;;;;;15.38;8.48;;;;;;;8.85;54.08;99316.48;1732019;83;21112;-83
2021/04/17 08:59:40;;;;;;;14.33;6.97;;;;;;;9.06;53.57;99302.80;1852413;76;23041;-84
2021/04/17 09:02:14;;;;;;;16.82;8.78;;;;;;;9.06;54.56;99309.28;1835656;78;21245;-86
2021/04/17 09:05:06;;;;;;;13.98;8.03;;;;;;;9.08;54.22;99297.14;1835631;78;21296;-86
2021/04/17 09:07:38;;;;;;;14.50;7.85;;;;;;;9.16;54.50;99294.83;1835672;77;21229;-86
2021/04/17 09:10:31;;;;;;;15.05;8.68;;;;;;;9.39;54.05;99297.92;1835696;78;21100;-86
2021/04/17 09:13:18;;;;;;;12.50;7.95;;;;;;;9.49;54.41;99291.27;1835673;77;21257;-84
2021/04/17 09:16:03;;;;;;;13.75;7.37;;;;;;;9.59;52.34;99289.79;1840383;77;21209;-86
2021/04/17 09:18:40;;;;;;;14.68;8.20;;;;;;;9.63;52.34;99283.23;1858253;77;21346;-86
2021/04/17 09:21:17;;;;;;;12.37;7.97;;;;;;;9.72;53.06;99286.94;1786185;75;21320;-83
2021/04/17 09:23:50;;;;;;;14.55;8.15;;;;;;;9.87;53.45;99284.97;1706716;84;21201;-84
2021/04/17 09:26:34;;;;;;;13.63;8.30;;;;;;;10.07;54.14;99287.17;1707037;84;21291;-85
2021/04/17 09:29:21;;;;;;;13.43;8.28;;;;;;;10.14;52.58;99277.05;1706946;84;21307;-84
2021/04/17 09:31:53;;;;;;;12.15;7.30;;;;;;;10.20;52.68;99270.42;1706347;83;21243;-85
2021/04/17 09:34:20;;;;;;;13.18;7.67;;;;;;;10.32;51.33;99259.80;1705556;84;21292;-84
2021/04/17 09:36:50;;;;;;;11.85;7.05;;;;;;;10.40;52.29;99252.30;1675028;86;21273;-84
2021/04/17 09:39:32;;;;;;;12.28;7.37;;;;;;;10.51;51.30;99256.38;1672359;86;21288;-86
2021/04/17 09:42:05;;;;;;;11.70;7.30;;;;;;;10.51;50.65;99245.97;1660056;86;21156;-86
2021/04/17 09:44:49;;;;;;;11.57;6.85;;;;;;;10.68;52.46;99248.20;1659935;87;21246;-86
2021/04/17 09:47:18;;;;;;;;;;;;;;;10.79;51.46;99246.64;1680462;86;21303;-85
2021/04/17 09:49:49;;;;;;;10.45;5.55;;;;;;;11.00;49.46;99239.20;1677543;86;20226;-86
2021/04/17 09:52:21;;;;;;;11.93;5.53;;;;;;;11.29;52.15;99239.33;1678337;85;21296;-86
2021/04/17 09:55:02;;;;;;;7.90;5.05;;;;;;;11.63;51.68;99242.34;1672931;85;21288;-88
2021/04/17 09:57:31;;;;;;;8.23;4.90;;;;;;;11.80;49.80;99226.27;1658834;85;21249;-86
2021/04/17 10:00:00;;;;;;;8.65;5.08;;;;;;;12.03;50.71;99226.94;1655181;86;21280;-85
2021/04/17 10:02:47;;;;;;;10.85;5.25;;;;;;;12.14;48.37;99227.48;1664832;86;21276;-86
2021/04/17 10:05:20;;;;;;;7.65;5.12;;;;;;;12.15;45.87;99223.13;1668372;86;21276;-85
2021/04/17 10:07:50;;;;;;;10.45;6.03;;;;;;;12.14;46.21;99222.27;1654457;86;21165;-84
2021/04/17 10:10:17;;;;;;;8.80;5.40;;;;;;;12.18;46.68;99216.98;1659421;86;21184;-84
2021/04/17 10:12:51;;;;;;;9.00;5.58;;;;;;;12.06;43.83;99216.89;1666468;86;21340;-84
2021/04/17 10:15:28;;;;;;;8.33;5.17;;;;;;;12.00;44.49;99219.22;1667156;86;21220;-81
2021/04/17 10:18:01;;;;;;;9.33;4.90;;;;;;;11.91;44.92;99211.20;1659914;86;21217;-82
2021/04/17 10:20:30;;;;;;;9.70;5.22;;;;;;;11.96;44.16;99212.39;1627239;87;21237;-85
2021/04/17 10:23:00;;;;;;;12.43;6.60;;;;;;;12.19;43.51;99203.04;1648982;84;21222;-86
2021/04/17 10:25:44;;;;;;;8.78;5.05;;;;;;;12.52;43.63;99197.25;1655076;87;21332;-86
2021/04/17 10:28:21;;;;;;;9.18;4.85;;;;;;;12.82;45.33;99190.65;1666022;86;21197;-85
2021/04/17 10:30:56;;;;;;;8.85;4.55;;;;;;;13.07;44.34;99191.55;1667000;86;21698;-86
2021/04/17 10:33:27;;;;;;;10.20;5.37;;;;;;;13.21;44.40;99192.81;1666884;86;21314;-86
2021/04/17 10:35:58;;;;;;;8.35;4.75;;;;;;;13.35;42.96;99194.55;1662483;86;21173;-86
2021/04/17 10:38:33;;;;;;;13.83;4.35;;;;;;;13.52;44.45;99189.56;1659181;86;21356;-87
2021/04/17 10:41:03;;;;;;;6.58;4.22;;;;;;;13.80;42.08;99195.09;1654783;87;21304;-85
2021/04/17 10:43:31;;;;;;;9.50;4.65;;;;;;;13.97;41.65;99192.34;1655239;86;21189;-85
2021/04/17 10:46:03;;;;;;;7.05;4.37;;;;;;;14.19;40.85;99187.15;1656166;86;21324;-83
2021/04/17 10:48:44;;;;;;;8.27;4.50;;;;;;;14.11;38.66;99176.52;1639891;88;21218;-86
2021/04/17 10:51:17;;;;;;;6.45;4.10;;;;;;;14.23;39.85;99167.81;1647182;86;21304;-85
2021/04/17 10:53:49;;;;;;;9.73;4.05;;;;;;;13.95;36.31;99175.40;1666732;86;21324;-87
2021/04/17 10:56:20;;;;;;;9.78;4.45;;;;;;;14.25;39.42;99160.77;1654472;86;21243;-84
2021/04/17 10:59:00;;;;;;;7.05;4.72;;;;;;;14.08;36.02;99153.09;1666664;86;21347;-86
2021/04/17 11:01:34;;;;;;;14.55;4.60;;;;;;;14.29;36.59;99159.73;1656471;86;21276;-84
2021/04/17 11:04:02;;;;;;;6.15;4.20;;;;;;;14.28;38.57;99160.63;1666649;86;21339;-86
2021/04/17 11:06:36;;;;;;;7.75;3.60;;;;;;;14.45;38.55;99157.36;1666944;86;21268;-86
2021/04/17 11:09:11;;;;;;;7.60;4.10;;;;;;;14.53;38.77;99148.27;1666792;86;21287;-87
2021/04/17 11:12:00;;;;;;;6.60;4.00;;;;;;;14.65;35.23;99152.19;1666400;86;21288;-85
2021/04/17 11:14:31;;;;;;;13.10;4.83;;;;;;;14.96;35.91;99149.63;1667023;86;21444;-86
2021/04/17 11:16:58;;;;;;;6.58;4.12;;;;;;;15.12;36.41;99147.21;1666813;86;21321;-86
2021/04/17 11:19:34;;;;;;;8.60;4.15;;;;;;;15.22;35.17;99147.64;1637589;86;21367;-86
2021/04/17 11:22:16;;;;;;;6.45;3.62;;;;;;;15.27;36.54;99143.91;1686560;84;21295;-85
2021/04/17 11:25:04;;;;;;;6.28;3.52;;;;;;;15.35;37.04;99133.09;1716719;83;21287;-87
2021/04/17 11:27:34;;;;;;;7.17;3.35;;;;;;;15.66;34.84;99136.52;1716356;84;21247;-87
2021/04/17 11:30:07;;;;;;;6.03;3.30;;;;;;;16.01;36.62;99128.81;1713545;84;21545;-86
2021/04/17 11:32:35;;;;;;;6.90;4.20;;;;;;;15.84;31.98;99120.91;1716473;83;21279;-87
2021/04/17 11:35:07;;;;;;;7.22;3.98;;;;;;;15.95;34.93;99121.71;1719586;83;21168;-87
2021/04/17 11:37:36;;;;;;;5.97;3.47;;;;;;;16.10;34.17;99119.22;1719871;83;21317;-86
2021/04/17 11:40:05;;;;;;;5.92;3.40;;;;;;;16.45;32.89;99116.69;1693218;84;21340;-84
2021/04/17 11:42:33;;;;;;;6.92;4.05;;;;;;;16.43;31.54;99105.42;1714458;84;21154;-85
2021/04/17 11:45:00;;;;;;;7.83;4.97;;;;;;;16.41;32.01;99116.45;1716446;83;21188;-85
2021/04/17 11:47:27;;;;;;;5.72;4.10;;;;;;;16.34;34.47;99094.52;1716209;83;21184;-86
2021/04/17 11:49:55;;;;;;;7.28;4.78;;;;;;;16.56;34.63;99111.38;1716522;83;21188;-85
2021/04/17 11:52:22;;;;;;;7.58;4.62;;;;;;;16.66;35.13;99113.92;1694174;84;21152;-85
2021/04/17 11:54:52;;;;;;;7.83;4.55;;;;;;;16.41;32.73;99109.02;1712634;84;21307;-86
2021/04/17 11:57:19;;;;;;;6.58;4.20;;;;;;;16.36;33.79;99107.94;1716083;84;21185;-86
2021/04/17 11:59:46;;;;;;;7.30;4.78;;;;;;;16.44;33.60;99108.41;1715654;84;21275;-85
2021/04/17 12:02:14;;;;;;;8.35;4.80;;;;;;;16.42;34.46;99113.36;1715615;84;21303;-86
2021/04/17 12:04:41;;;;;;;6.87;4.37;;;;;;;16.31;34.98;99112.55;1709166;84;21307;-86
2021/04/17 12:07:09;;;;;;;8.15;4.80;;;;;;;16.08;34.52;99104.02;1706219;84;21110;-86
2021/04/17 12:09:36;;;;;;;9.85;5.10;;;;;;;16.01;33.29;99108.31;1716613;83;21146;-86
2021/04/17 12:12:05;;;;;;;7.42;4.50;;;;;;;15.79;33.50;99101.91;1715822;84;21303;-86
2021/04/17 12:14:33;;;;;;;8.88;5.00;;;;;;;15.82;34.89;99086.90;1715920;84;21346;-85
2021/04/17 12:17:00;;;;;;;7.47;4.67;;;;;;;15.93;35.17;99089.47;1714934;84;21275;-86
2021/04/17 12:19:28;;;;;;;7.65;4.40;;;;;;;16.07;33.27;99098.84;1713740;83;21338;-86
2021/04/17 12:21:55;;;;;;;6.78;4.10;;;;;;;16.38;33.15;99087.73;1719343;81;21193;-84
2021/04/17 12:24:23;;;;;;;7.58;4.25;;;;;;;16.73;33.94;99085.11;1726949;83;21327;-85
2021/04/17 12:26:51;;;;;;;6.28;4.00;;;;;;;17.14;32.08;99071.67;1724453;82;21303;-84
2021/04/17 12:29:18;;;;;;;9.65;4.50;;;;;;;17.54;30.68;99077.42;1691359;85;21309;-86
2021/04/17 12:31:49;;;;;;;9.63;4.70;;;;;;;18.28;33.02;99076.88;1691903;84;21296;-85
2021/04/17 12:34:17;;;;;;;6.30;4.10;;;;;;;18.69;31.32;99076.72;1720660;82;22059;-82
2021/04/17 12:36:44;;;;;;;8.83;4.87;;;;;;;18.97;30.41;99066.73;1715115;82;21192;-83
2021/04/17 12:39:12;;;;;;;6.25;4.10;;;;;;;19.42;30.24;99056.97;1718171;82;21197;-82
2021/04/17 12:41:39;;;;;;;7.37;3.95;;;;;;;20.06;29.82;99053.38;1692234;83;21606;-81
2021/04/17 12:44:10;;;;;;;6.67;4.05;;;;;;;20.32;26.60;99052.14;1695212;83;21355;-85
2021/04/17 12:46:42;;;;;;;14.03;4.10;;;;;;;20.80;29.89;99055.12;1721761;82;21169;-83
2021/04/17 12:49:10;;;;;;;7.05;4.10;;;;;;;20.85;25.50;99048.22;1722596;81;21342;-82
2021/04/17 12:51:38;;;;;;;9.93;4.10;;;;;;;20.61;27.58;99044.97;1721421;82;21207;-83
2021/04/17 12:54:06;;;;;;;7.80;4.87;;;;;;;20.22;25.39;99041.83;1721971;82;21178;-83
2021/04/17 12:56:34;;;;;;;7.20;3.90;;;;;;;20.10;26.53;99045.27;1721871;82;21311;-84
2021/04/17 12:59:02;;;;;;;5.78;4.05;;;;;;;20.03;27.19;99036.89;1718806;82;21185;-83
2021/04/17 13:01:32;;;;;;;11.08;4.17;;;;;;;19.56;25.76;99038.13;1722354;82;21204;-83
2021/04/17 13:03:59;;;;;;;9.55;3.62;;;;;;;19.58;26.74;99033.61;1698059;83;21286;-84
2021/04/17 13:06:29;;;;;;;5.58;3.22;;;;;;;19.46;26.57;99040.49;1661985;85;21323;-85
2021/04/17 13:08:57;;;;;;;6.72;3.40;;;;;;;19.20;27.08;99040.77;1685691;84;21141;-83
2021/04/17 13:11:25;;;;;;;5.80;2.80;;;;;;;19.05;24.91;99035.97;1670383;85;21169;-85
2021/04/17 13:13:52;;;;;;;4.50;2.95;;;;;;;18.63;24.47;99034.48;1726582;81;21322;-83
2021/04/17 13:16:20;;;;;;;5.60;2.90;;;;;;;18.45;25.17;99044.30;1718685;81;21371;-82
2021/04/17 13:18:47;;;;;;;3.67;2.27;;;;;;;18.44;26.35;99038.67;1720954;82;21161;-84
2021/04/17 13:21:15;;;;;;;5.03;2.90;;;;;;;18.54;24.90;99038.95;1721939;81;21329;-84
2021/04/17 13:23:43;;;;;;;6.72;3.20;;;;;;;18.37;26.74;99037.80;1736808;82;21549;-84
2021/04/17 13:26:15;;;;;;;6.80;3.72;;;;;;;18.24;24.99;99035.02;1737091;82;21710;-84
2021/04/17 13:28:40;;;;;;;5.65;3.17;;;;;;;18.22;26.51;99039.52;1731768;81;21321;-83
2021/04/17 13:31:07;;;;;;;5.08;3.30;;;;;;;18.00;26.73;99030.21;1736607;81;21636;-83
2021/04/17 13:33:35;;;;;;;6.08;3.40;;;;;;;17.76;26.04;99026.31;1736556;81;21283;-85
2021/04/17 13:36:06;;;;;;;7.03;3.52;;;;;;;17.74;26.78;99033.44;1736547;82;21300;-84
2021/04/17 13:38:35;;;;;;;7.87;3.40;;;;;;;17.93;27.61;99027.56;1739790;81;21295;-85
2021/04/17 13:41:05;;;;;;;5.30;3.08;;;;;;;17.84;27.65;99024.97;1739543;81;21168;-84
2021/04/17 13:43:32;;;;;;;9.23;3.00;;;;;;;17.91;26.73;99024.17;1738021;82;21645;-84
2021/04/17 13:46:01;;;;;;;5.08;2.95;;;;;;;18.07;24.86;99024.99;1737614;81;21311;-81
2021/04/17 13:48:29;;;;;;;5.70;3.30;;;;;;;18.18;25.69;99023.52;1735081;82;21196;-81
2021/04/17 13:50:56;;;;;;;6.37;3.52;;;;;;;18.26;25.70;99022.61;1736938;81;21156;-83
2021/04/17 13:53:24;;;;;;;6.42;3.40;;;;;;;18.32;26.31;99027.52;1734620;82;21318;-82
2021/04/17 13:55:51;;;;;;;7.08;3.42;;;;;;;18.07;27.27;99024.16;1706102;83;21145;-82
2021/04/17 13:58:20;;;;;;;8.23;3.25;;;;;;;18.04;26.58;99019.89;1702349;83;21561;-82
2021/04/17 14:00:48;;;;;;;7.92;3.85;;;;;;;18.37;26.29;99025.48;1671970;84;21650;-82
2021/04/17 14:03:15;;;;;;;12.23;3.55;;;;;;;17.96;26.99;99016.85;1671222;85;21295;-81
2021/04/17 14:05:43;;;;;;;8.30;3.62;;;;;;;17.45;27.50;99026.70;1688885;84;21130;-83
2021/04/17 14:08:11;;;;;;;5.25;2.70;;;;;;;17.59;28.24;99022.84;1705714;83;21184;-83
2021/04/17 14:10:42;;;;;;;8.10;3.55;;;;;;;17.79;27.68;99016.95;1701618;83;21326;-82
2021/04/17 14:13:07;;;;;;;9.08;3.35;;;;;;;17.97;27.27;99017.72;1676133;84;21166;-83
2021/04/17 14:15:35;;;;;;;6.03;3.15;;;;;;;17.49;27.12;99018.55;1708399;83;21153;-84
2021/04/17 14:18:03;;;;;;;6.72;3.70;;;;;;;17.28;27.61;99019.70;1703756;83;21202;-83
2021/04/17 14:20:34;;;;;;;7.45;3.70;;;;;;;17.02;28.20;99019.31;1677049;84;21258;-82
2021/04/17 14:23:01;;;;;;;6.30;3.65;;;;;;;17.09;28.62;99015.92;1670598;84;21206;-81
2021/04/17 14:25:29;;;;;;;10.00;4.10;;;;;;;16.79;29.76;99014.38;1655619;85;21426;-81
2021/04/17 14:27:57;;;;;;;5.70;3.70;;;;;;;16.67;30.41;99016.73;1651742;85;21199;-82
2021/04/17 14:30:26;;;;;;;8.53;4.50;;;;;;;16.49;30.64;99009.33;1650413;85;21192;-84
2021/04/17 14:32:53;;;;;;;9.63;3.80;;;;;;;16.38;31.49;99014.73;1651613;85;21356;-82
2021/04/17 14:35:23;;;;;;;8.73;4.05;;;;;;;16.23;30.67;99013.70;1651130;87;21336;-81
2021/04/17 14:37:52;;;;;;;6.05;3.75;;;;;;;15.88;30.98;99008.43;1651461;85;21367;-82
2021/04/17 14:40:20;;;;;;;7.83;4.47;;;;;;;15.63;31.63;99009.55;1650291;85;21328;-82
2021/04/17 14:42:48;;;;;;;8.98;5.03;;;;;;;15.33;33.72;99004.44;1652659;85;21232;-82
2021/04/17 14:45:18;;;;;;;9.50;4.90;;;;;;;15.35;32.80;99007.84;1657977;85;21226;-85
2021/04/17 14:47:46;;;;;;;8.65;4.70;;;;;;;14.99;34.11;99012.05;1648096;85;21323;-83
2021/04/17 14:50:16;;;;;;;11.53;5.67;;;;;;;14.77;34.47;99009.52;1668398;85;21353;-82
2021/04/17 14:52:45;;;;;;;11.90;5.28;;;;;;;14.57;35.72;99010.85;1656993;85;21184;-81
2021/04/17 14:55:13;;;;;;;15.03;8.60;;;;;;;14.51;36.06;99006.23;1650971;85;21213;-80
2021/04/17 14:57:41;;;;;;;15.68;5.70;;;;;;;14.45;36.08;99009.11;1655903;85;21224;-83
2021/04/17 15:00:11;;;;;;;11.00;5.30;;;;;;;14.37;35.98;99007.74;1664890;85;21179;-81
2021/04/17 15:02:38;;;;;;;10.40;5.03;;;;;;;14.31;35.38;99004.45;1659933;85;21287;-80
2021/04/17 15:05:07;;;;;;;10.48;4.95;;;;;;;14.07;36.96;99006.78;1635801;85;21667;-80
2021/04/17 15:07:34;;;;;;;11.10;6.35;;;;;;;13.95;36.67;99005.52;1670390;85;21279;-82
2021/04/17 15:10:04;;;;;;;15.30;6.58;;;;;;;13.82;38.00;99002.99;1656374;86;21345;-83
2021/04/17 15:12:32;;;;;;;10.53;5.70;;;;;;;13.83;37.79;99001.63;1664250;85;21352;-83
2021/04/17 15:14:59;;;;;;;9.95;5.05;;;;;;;13.68;38.55;98999.15;1661671;85;21283;-83
2021/04/17 15:17:26;;;;;;;9.35;5.37;;;;;;;13.53;39.11;98995.86;1659926;85;21176;-84
2021/04/17 15:19:54;;;;;;;10.15;5.72;;;;;;;13.40;38.70;99003.75;1659865;85;21164;-82
2021/04/17 15:22:22;;;;;;;8.58;4.85;;;;;;;13.36;39.84;99000.86;1663139;84;21320;-81
2021/04/17 15:24:49;;;;;;;12.20;5.92;;;;;;;13.27;39.06;98996.79;1695108;85;21117;-85
2021/04/17 15:27:17;;;;;;;9.80;4.90;;;;;;;13.13;39.37;98994.73;1671034;82;21178;-83
2021/04/17 15:29:45;;;;;;;11.40;4.97;;;;;;;13.09;39.27;98990.50;1730999;81;21231;-83
2021/04/17 15:32:14;;;;;;;9.95;5.25;;;;;;;13.07;40.07;98994.92;1733794;82;21290;-84
2021/04/17 15:34:45;;;;;;;12.20;5.78;;;;;;;12.90;40.87;98996.86;1725175;83;21275;-83
2021/04/17 15:37:17;;;;;;;10.35;5.28;;;;;;;12.83;40.75;98988.84;1726054;82;21212;-86
2021/04/17 15:39:44;;;;;;;8.70;5.03;;;;;;;12.83;39.71;98998.84;1720732;82;21746;-82
2021/04/17 15:42:12;;;;;;;7.70;4.40;;;;;;;12.80;39.97;98994.19;1717372;83;21148;-83
2021/04/17 15:44:40;;;;;;;8.50;5.03;;;;;;;12.73;39.89;98993.53;1736912;82;21239;-84
2021/04/17 15:47:08;;;;;;;9.25;4.75;;;;;;;12.65;41.01;98984.70;1723348;81;21124;-85
2021/04/17 15:49:36;;;;;;;9.15;5.20;;;;;;;12.58;41.08;98994.94;1723778;83;21360;-81
2021/04/17 15:52:04;;;;;;;12.37;5.78;;;;;;;12.53;42.10;98982.50;1680574;85;21165;-81